Latest Weather Observations for Cape Wessel

IDD60801

Issued at 9:35 pm CST Saturday 30 August 2014 (issued every 30 minutes, with the page automatically refreshed every 10 minutes)

About weather observations | Map of weather stations | Latest weather observations for NT | Other Formats
Station Details ID: 200786 Name: CAPE WESSEL Lat: -11.00 Lon: 136.76 Height: 18.0 m
Data from the previous 72 hours. | See also: Recent months for locations in Northern Territory
Date/Time
CST
Temp
°C
App
Temp
°C
Dew
Point
Rel
Hum
%
Delta-T
°C
Wind Press
QNH
hPa
Press
MSL
hPa
Rain
since 9 am
mm
Dir
 
Spd
km/h
Gust
km/h
Spd
kts
Gust
kts
30/09:30pm 24.2 22.6 20.1 78 2.7 ESE 28 33 15 18 1013.7 - 0.0
30/09:00pm 24.2 23.0 20.1 78 2.7 ESE 26 32 14 17 1013.6 1013.5 0.0
30/08:30pm 24.3 22.8 20.2 78 2.7 ESE 28 33 15 18 1013.4 - 0.0
30/08:00pm 24.4 23.4 20.5 79 2.5 ESE 26 33 14 18 1013.1 - 0.0
30/07:30pm 24.4 23.7 20.3 78 2.7 ESE 24 30 13 16 1012.8 - 0.0
30/07:00pm 24.4 23.1 19.9 76 2.9 ESE 26 32 14 17 1012.6 - 0.0
30/06:30pm 24.5 23.7 20.0 76 2.9 ESE 24 30 13 16 1012.2 - 0.0
30/06:00pm 24.9 24.0 19.9 74 3.2 ESE 24 30 13 16 1011.8 1011.7 0.0
30/05:30pm 25.7 25.6 20.0 71 3.7 ESE 20 26 11 14 1011.5 - 0.0
30/05:00pm 27.0 26.4 20.6 68 4.2 SE 24 28 13 15 1011.3 - 0.0
30/04:30pm 27.5 26.8 20.3 65 4.7 SE 24 30 13 16 1011.4 - 0.0
30/04:00pm 28.0 27.3 20.3 63 5.1 SE 24 30 13 16 1011.6 - 0.0
30/03:30pm 29.0 29.0 21.0 62 5.3 SE 22 28 12 15 1011.8 - 0.0
30/03:00pm 28.5 28.1 20.2 60 5.5 ESE 22 28 12 15 1011.9 1011.8 0.0
30/02:30pm 29.7 29.8 21.1 60 5.7 ESE 22 28 12 15 1012.2 - 0.0
30/02:00pm 28.7 27.3 19.6 58 5.9 ESE 26 30 14 16 1012.5 - 0.0
30/01:30pm 29.6 28.9 20.2 57 6.2 ESE 24 28 13 15 1012.8 - 0.0
30/01:00pm 30.2 29.7 20.7 56 6.3 ESE 24 28 13 15 1013.1 - 0.0
30/12:30pm 29.6 29.4 20.5 58 6.0 ESE 22 28 12 15 1013.8 - 0.0
30/12:00pm 29.9 29.8 20.7 57 6.1 ESE 22 28 12 15 1014.3 1014.2 0.0
30/11:30am 29.3 29.1 20.5 59 5.8 ESE 22 26 12 14 1014.6 - 0.0
30/11:00am 28.7 28.3 20.2 60 5.6 ESE 22 28 12 15 1015.0 - 0.0
30/10:30am 28.3 28.3 20.1 61 5.4 ESE 20 26 11 14 1015.4 - 0.0
30/10:00am 28.5 28.5 21.0 64 5.0 ESE 22 28 12 15 1015.6 - 0.0
30/09:30am 27.0 26.8 20.6 68 4.2 ESE 22 26 12 14 1015.6 - 0.0
30/09:00am 26.1 25.4 20.2 70 3.8 ESE 24 30 13 16 1015.5 1015.4 0.0
30/08:30am 25.6 24.9 20.2 72 3.5 ESE 24 28 13 15 1015.3 - 0.0
30/08:00am 24.9 23.9 19.7 73 3.4 SE 24 30 13 16 1015.1 - 0.0
30/07:30am 24.2 22.6 19.3 74 3.1 ESE 26 30 14 16 1014.8 - 0.0
30/07:00am 24.1 22.5 19.2 74 3.1 ESE 26 32 14 17 1014.4 - 0.0
30/06:30am 23.8 22.5 19.1 75 3.0 SE 24 30 13 16 1014.0 - 0.0
30/06:00am 23.8 22.5 19.1 75 3.0 SE 24 30 13 16 1013.7 1013.6 0.0
30/05:30am 23.8 22.8 18.9 74 3.1 SE 22 28 12 15 1013.5 - 0.0
30/05:00am 23.6 22.5 18.7 74 3.1 SE 22 24 12 13 1013.3 - 0.0
30/04:30am 23.5 22.4 18.6 74 3.1 ESE 22 24 12 13 1013.1 - 0.0
30/04:00am 23.5 22.9 18.8 75 3.0 SE 20 24 11 13 1013.1 - 0.0
30/03:30am 23.7 22.7 18.8 74 3.1 SE 22 28 12 15 1013.2 - 0.0
30/03:00am 23.7 22.7 18.8 74 3.1 SE 22 28 12 15 1013.5 1013.4 0.0
30/02:30am 24.0 23.7 19.5 76 2.9 SE 20 26 11 14 1013.8 - 0.0
30/02:00am 23.9 23.2 19.4 76 2.9 SE 22 26 12 14 1013.8 - 0.0
30/01:30am 23.9 22.8 19.4 76 2.9 SE 24 30 13 16 1013.7 - 0.0
30/01:00am 23.9 22.8 19.4 76 2.9 SE 24 30 13 16 1013.8 - 0.0
30/12:30am 23.9 22.9 19.6 77 2.8 ESE 24 28 13 15 1013.8 - 0.0
30/12:00am 24.0 22.5 19.5 76 2.9 ESE 26 30 14 16 1014.0 1013.9 0.0
 
Date/Time
CST
Temp
°C
App
Temp
°C
Dew
Point
Rel
Hum
%
Delta-T
°C
Wind Press
QNH
hPa
Press
MSL
hPa
Rain
since 9 am
mm
Dir
 
Spd
km/h
Gust
km/h
Spd
kts
Gust
kts
29/11:30pm 24.1 22.8 19.8 77 2.8 SE 26 32 14 17 1014.2 - 0.0
29/11:00pm 24.2 22.9 19.9 77 2.8 SE 26 32 14 17 1014.4 - 0.0
29/10:30pm 24.3 22.9 19.6 75 3.0 SE 26 32 14 17 1014.4 - 0.0
29/10:00pm 24.3 22.5 19.6 75 3.0 SE 28 33 15 18 1014.7 - 0.0
29/09:30pm 24.3 22.8 19.4 74 3.1 SE 26 35 14 19 1014.5 - 0.0
29/09:00pm 24.3 22.4 19.4 74 3.1 SE 28 32 15 17 1014.4 1014.3 0.0
29/08:30pm 24.4 22.9 19.5 74 3.1 ESE 26 32 14 17 1013.9 - 0.0
29/08:00pm 24.4 22.4 19.2 73 3.3 ESE 28 33 15 18 1013.6 - 0.0
29/07:30pm 24.5 22.9 19.1 72 3.4 ESE 26 35 14 19 1013.5 - 0.0
29/07:00pm 24.6 22.9 19.0 71 3.6 ESE 26 33 14 18 1013.2 - 0.0
29/06:30pm 24.7 22.6 18.9 70 3.7 ESE 28 32 15 17 1012.8 - 0.0
29/06:00pm 25.2 23.1 18.9 68 4.0 ESE 28 33 15 18 1012.5 1012.4 0.0
29/05:30pm 25.7 23.6 18.1 63 4.8 ESE 26 32 14 17 1012.3 - 0.0
29/05:00pm 27.3 26.3 19.6 62 5.0 ESE 24 30 13 16 1012.4 - 0.0
29/04:30pm 27.5 26.7 20.1 64 4.8 E 24 32 13 17 1012.3 - 0.0
29/04:00pm 27.8 26.9 20.6 65 4.7 ESE 26 32 14 17 1012.3 - 0.0
29/03:30pm 28.3 27.1 20.8 63 5.0 E 28 32 15 17 1012.0 - 0.0
29/03:00pm 27.9 26.8 20.2 63 5.1 SE 26 35 14 19 1012.1 1012.0 0.0
29/02:30pm 29.4 28.9 21.4 62 5.4 SE 26 32 14 17 1012.3 - 0.0
29/02:00pm 29.9 29.5 21.6 61 5.6 SE 26 32 14 17 1012.5 - 0.0
29/01:30pm 30.2 30.5 21.6 60 5.8 SE 22 28 12 15 1013.0 - 0.0
29/01:00pm 30.5 30.6 21.8 59 5.9 SE 24 32 13 17 1013.3 - 0.0
29/12:30pm 30.1 30.2 21.2 59 6.0 SE 22 28 12 15 1013.7 - 0.0
29/12:00pm 29.6 29.2 21.0 60 5.7 SE 24 30 13 16 1014.1 1014.0 0.0
29/11:30am 29.4 28.9 20.8 60 5.7 SE 24 32 13 17 1014.4 - 0.0
29/11:00am 29.5 29.1 20.9 60 5.7 SE 24 30 13 16 1014.9 - 0.0
29/10:30am 28.6 27.7 20.6 62 5.3 ESE 26 30 14 16 1015.0 - 0.0
29/10:00am 28.2 27.2 20.5 63 5.1 SE 26 32 14 17 1015.2 - 0.0
29/09:30am 27.1 26.0 20.2 66 4.5 SE 26 32 14 17 1015.1 - 0.0
29/09:00am 27.1 26.7 20.9 69 4.1 SE 24 32 13 17 1015.1 1015.0 0.0
29/08:30am 25.5 24.2 20.7 75 3.1 SE 28 33 15 18 1015.0 - 0.0
29/08:00am 24.7 23.4 20.6 78 2.7 SE 28 33 15 18 1014.8 - 0.0
29/07:30am 24.2 22.7 20.3 79 2.5 SE 28 33 15 18 1014.5 - 0.0
29/07:00am 23.6 22.1 20.3 82 2.1 SE 28 33 15 18 1014.2 - 0.0
29/06:30am 23.1 21.9 20.1 83 1.9 SE 26 30 14 16 1013.9 - 0.0
29/06:00am 23.0 21.8 20.0 83 1.9 SE 26 32 14 17 1013.5 1013.4 0.0
29/05:30am 23.1 21.4 19.9 82 2.1 SE 28 37 15 20 1013.3 - 0.0
29/05:00am 23.1 21.0 19.7 81 2.2 SE 30 35 16 19 1013.3 - 0.0
29/04:30am 23.0 20.8 19.6 81 2.2 SE 30 37 16 20 1013.0 - 0.0
29/04:00am 23.0 20.7 19.4 80 2.3 SE 30 37 16 20 1012.7 - 0.0
29/03:30am 23.1 21.3 19.5 80 2.3 SE 28 39 15 21 1012.7 - 0.0
29/03:00am 23.2 20.6 19.4 79 2.4 SE 32 37 17 20 1012.7 1012.6 0.0
29/02:30am 23.2 21.3 19.4 79 2.4 SE 28 35 15 19 1012.9 - 0.0
29/02:00am 23.4 21.5 19.3 78 2.6 SE 28 35 15 19 1013.1 - 0.0
29/01:30am 23.4 20.6 19.1 77 2.7 SE 32 39 17 21 1013.2 - 0.0
29/01:00am 23.4 20.6 19.1 77 2.7 SE 32 39 17 21 1013.3 - 0.0
29/12:30am 23.5 20.5 19.0 76 2.9 SE 33 43 18 23 1013.3 - 0.0
29/12:00am 23.6 20.6 19.1 76 2.9 SE 33 41 18 22 1013.5 1013.4 0.0
 
Date/Time
CST
Temp
°C
App
Temp
°C
Dew
Point
Rel
Hum
%
Delta-T
°C
Wind Press
QNH
hPa
Press
MSL
hPa
Rain
since 9 am
mm
Dir
 
Spd
km/h
Gust
km/h
Spd
kts
Gust
kts
28/11:30pm 23.7 20.9 19.0 75 3.0 SE 32 39 17 21 1013.8 - 0.0
28/11:00pm 23.6 20.7 18.9 75 3.0 SSE 32 39 17 21 1014.1 - 0.0
28/10:30pm 23.6 21.1 18.9 75 3.0 SE 30 39 16 21 1014.2 - 0.0
28/10:00pm 23.9 20.9 19.0 74 3.1 SE 33 41 18 22 1014.2 - 0.0
28/09:30pm 24.0 21.1 18.9 73 3.2 SE 32 41 17 22 1014.1 - 0.0
28/09:00pm 24.0 20.7 18.4 71 3.5 SE 33 41 18 22 1013.8 1013.7 0.0
28/08:30pm 24.1 20.4 18.3 70 3.7 SE 35 43 19 23 1013.9 - 0.0
28/08:00pm 24.1 20.7 18.1 69 3.8 SSE 33 41 18 22 1013.9 - 0.0
28/07:30pm 24.3 20.5 18.2 68 3.8 SE 35 41 19 22 1013.7 - 0.0
28/07:00pm 24.2 20.6 17.7 67 4.1 SE 33 39 18 21 1013.3 - 0.0
28/06:30pm 24.4 21.0 17.6 66 4.2 SE 32 39 17 21 1012.9 - 0.0
28/06:00pm 24.8 21.0 17.3 63 4.7 SE 33 41 18 22 1012.7 1012.6 0.0
28/05:30pm 25.6 21.9 17.5 61 5.1 SE 33 39 18 21 1012.4 - 0.0
28/05:00pm 26.4 22.8 17.7 58 5.5 SE 33 41 18 22 1012.4 - 0.0
28/04:30pm 26.9 23.3 17.7 57 5.8 SE 33 41 18 22 1012.1 - 0.0
28/04:00pm 27.8 24.7 18.5 57 6.0 SE 32 41 17 22 1012.2 - 0.0
28/03:30pm 28.3 24.9 18.1 54 6.5 SE 33 41 18 22 1012.3 - 0.0
28/03:00pm 29.1 26.4 18.5 52 6.8 SE 30 39 16 21 1012.4 1012.3 0.0
28/02:30pm 29.3 26.0 18.4 51 7.0 SE 33 43 18 23 1012.6 - 0.0
28/02:00pm 29.7 26.6 18.8 52 7.0 SE 33 44 18 24 1012.8 - 0.0
28/01:30pm 28.9 25.5 18.1 52 6.9 SE 33 43 18 23 1012.9 - 0.0
28/01:00pm 29.7 26.9 19.4 54 6.7 SE 33 41 18 22 1013.2 - 0.0
28/12:30pm 29.7 26.2 18.8 52 7.0 SE 35 44 19 24 1013.5 - 0.0
28/12:00pm 29.6 26.7 19.3 54 6.7 SE 33 43 18 23 1013.9 1013.8 0.0
28/11:30am 29.0 26.0 19.0 54 6.5 ESE 33 41 18 22 1014.1 - 0.0
28/11:00am 29.0 26.1 19.3 55 6.3 SE 33 41 18 22 1014.4 - 0.0
28/10:30am 28.5 25.8 19.7 59 5.7 SE 33 43 18 23 1014.5 - 0.0
28/10:00am 27.5 23.7 19.0 59 5.5 SE 37 44 20 24 1014.7 - 0.0
28/09:30am 27.3 23.7 19.4 62 5.1 SE 37 44 20 24 1014.9 - 0.0
28/09:00am 26.9 23.7 19.5 64 4.8 SE 35 44 19 24 1014.9 1014.8 0.0
28/08:30am 26.1 22.3 19.0 65 4.6 SE 37 44 20 24 1014.7 - 0.0
28/08:00am 25.4 21.5 18.8 67 4.2 SE 37 44 20 24 1014.5 - 0.0
28/07:30am 24.9 21.2 18.3 66 4.2 SE 35 43 19 23 1014.2 - 0.0
28/07:00am 24.2 20.5 18.4 70 3.7 SE 35 41 19 22 1013.9 - 0.0
28/06:30am 23.3 20.2 18.4 74 3.1 SE 32 37 17 20 1013.8 - 0.0
28/06:00am 23.0 21.0 19.2 79 2.4 SSE 28 33 15 18 1013.6 1013.5 0.0
28/05:30am 22.9 21.7 19.3 80 2.3 SSE 24 32 13 17 1013.4 - 0.0
28/05:00am 22.9 21.0 19.3 80 2.3 SSE 28 33 15 18 1013.3 - 0.0
28/04:30am 23.0 20.7 19.4 80 2.3 SSE 30 35 16 19 1013.2 - 0.0
28/04:00am 23.0 21.2 19.6 81 2.2 SSE 28 37 15 20 1013.2 - 0.0
28/03:30am 23.0 20.7 19.4 80 2.3 SSE 30 37 16 20 1013.1 - 0.0
28/03:00am 23.2 21.3 19.4 79 2.4 SSE 28 35 15 19 1013.1 1013.0 0.0
28/02:30am 23.3 20.6 19.2 78 2.6 SE 32 41 17 22 1013.2 - 0.0
28/02:00am 23.6 21.4 19.5 78 2.6 SE 30 35 16 19 1013.5 - 0.0
28/01:30am 23.5 20.6 19.2 77 2.7 SE 33 41 18 22 1013.5 - 0.0
28/01:00am 23.5 20.9 19.4 78 2.6 SSE 32 41 17 22 1013.8 - 0.0
28/12:30am 23.6 21.7 20.1 81 2.3 SSE 30 39 16 21 1013.9 - 0.0
28/12:00am 23.8 21.3 19.7 78 2.6 SE 32 37 17 20 1014.1 1014.0 0.0
 
Date/Time
CST
Temp
°C
App
Temp
°C
Dew
Point
Rel
Hum
%
Delta-T
°C
Wind Press
QNH
hPa
Press
MSL
hPa
Rain
since 9 am
mm
Dir
 
Spd
km/h
Gust
km/h
Spd
kts
Gust
kts
27/11:30pm 23.8 21.5 20.1 80 2.4 SSE 32 37 17 20 1014.3 - 0.0
27/11:00pm 23.8 21.5 20.1 80 2.4 SSE 32 41 17 22 1014.3 - 0.0
27/10:30pm 24.0 21.6 20.3 80 2.4 SSE 33 41 18 22 1014.3 - 0.0
27/10:00pm 24.0 21.7 20.1 79 2.5 SSE 32 39 17 21 1014.2 - 0.0

Other Formats:

Comma delimited format used in spreadsheet applications
http://www.bom.gov.au/fwo/IDD60801/IDD60801.94147.axf

JavaScript Object Notation format (JSON) in row-major order
http://www.bom.gov.au/fwo/IDD60801/IDD60801.94147.json